createdAt,value
2019-01-20T00:00:24.964Z,-1.61
2019-01-20T00:01:35.107Z,-1.52
2019-01-20T00:02:45.270Z,-1.54
2019-01-20T00:03:55.449Z,-1.65
2019-01-20T00:05:05.611Z,-1.67
2019-01-20T00:06:15.795Z,-1.71
2019-01-20T00:07:25.955Z,-1.62
2019-01-20T00:08:36.101Z,-1.67
2019-01-20T00:09:46.230Z,-1.7
2019-01-20T00:10:56.375Z,-1.67
2019-01-20T00:12:06.515Z,-1.72
2019-01-20T00:13:16.397Z,-1.71
2019-01-20T00:14:26.544Z,-1.71
2019-01-20T00:15:36.687Z,-1.71
2019-01-20T00:16:46.843Z,-1.71
2019-01-20T00:17:56.972Z,-1.65
2019-01-20T00:19:06.892Z,-1.6
2019-01-20T00:20:17.270Z,-1.6
2019-01-20T00:21:27.690Z,-1.58
2019-01-20T00:22:37.821Z,-1.54
2019-01-20T00:23:47.966Z,-1.4
2019-01-20T00:24:58.148Z,-1.5
2019-01-20T00:26:08.411Z,-1.49
2019-01-20T00:27:18.582Z,-1.46
2019-01-20T00:28:28.732Z,-1.49
2019-01-20T00:29:38.925Z,-1.5
2019-01-20T00:30:49.080Z,-1.44
2019-01-20T00:31:59.195Z,-1.49
2019-01-20T00:33:09.303Z,-1.43
2019-01-20T00:34:19.738Z,-1.49
2019-01-20T00:35:30.145Z,-1.54
2019-01-20T00:36:40.266Z,-1.42
2019-01-20T00:37:50.425Z,-1.46
2019-01-20T00:39:00.545Z,-1.36
2019-01-20T00:40:10.727Z,-1.49
2019-01-20T00:41:26.752Z,-1.42
2019-01-20T00:42:36.886Z,-1.44
2019-01-20T00:43:47.016Z,-1.43
2019-01-20T00:45:05.013Z,-1.5
2019-01-20T00:46:15.150Z,-1.46
2019-01-20T00:47:25.295Z,-1.44
2019-01-20T00:48:35.461Z,-1.54
2019-01-20T00:49:45.604Z,-1.43
2019-01-20T00:50:55.724Z,-1.5
2019-01-20T00:52:07.188Z,-1.52
2019-01-20T00:53:17.035Z,-1.5
2019-01-20T00:54:26.893Z,-1.53
2019-01-20T00:55:37.036Z,-1.58
2019-01-20T00:56:47.151Z,-1.62
2019-01-20T00:57:57.307Z,-1.58
2019-01-20T00:59:07.419Z,-1.67
2019-01-20T01:00:17.582Z,-1.64
2019-01-20T01:01:27.715Z,-1.68
2019-01-20T01:02:37.584Z,-1.68
2019-01-20T01:03:47.737Z,-1.72
2019-01-20T01:04:57.941Z,-1.62
2019-01-20T01:06:08.105Z,-1.68
2019-01-20T01:07:18.241Z,-1.58
2019-01-20T01:08:28.359Z,-1.57
2019-01-20T01:09:38.481Z,-1.52
2019-01-20T01:10:48.611Z,-1.53
2019-01-20T01:11:58.724Z,-1.52
2019-01-20T01:13:08.830Z,-1.58
2019-01-20T01:14:18.937Z,-1.53
2019-01-20T01:15:28.802Z,-1.52
2019-01-20T01:16:38.932Z,-1.46
2019-01-20T01:17:48.806Z,-1.43
2019-01-20T01:18:58.947Z,-1.5
2019-01-20T01:20:09.099Z,-1.49
2019-01-20T01:21:19.255Z,-1.46
2019-01-20T01:22:29.376Z,-1.46
2019-01-20T01:23:39.503Z,-1.52
2019-01-20T01:24:49.624Z,-1.43
2019-01-20T01:25:59.769Z,-1.54
2019-01-20T01:27:09.880Z,-1.58
2019-01-20T01:28:20.000Z,-1.61
2019-01-20T01:29:30.142Z,-1.61
2019-01-20T01:30:40.248Z,-1.64
2019-01-20T01:31:50.355Z,-1.6
2019-01-20T01:33:00.469Z,-1.58
2019-01-20T01:34:10.598Z,-1.62
2019-01-20T01:35:20.766Z,-1.62
2019-01-20T01:36:30.863Z,-1.62
2019-01-20T01:37:40.713Z,-1.52
2019-01-20T01:38:50.822Z,-1.58
2019-01-20T01:40:00.963Z,-1.68
2019-01-20T01:41:11.064Z,-1.71
2019-01-20T01:42:21.199Z,-1.76
2019-01-20T01:43:31.309Z,-1.71
2019-01-20T01:44:41.414Z,-1.76
2019-01-20T01:45:51.582Z,-1.85
2019-01-20T01:47:01.695Z,-1.79
2019-01-20T01:48:11.806Z,-1.76
2019-01-20T01:49:21.906Z,-1.75
2019-01-20T01:50:32.020Z,-1.75
2019-01-20T01:51:42.157Z,-1.76
2019-01-20T01:52:52.288Z,-1.72
2019-01-20T01:54:02.643Z,-1.7
2019-01-20T01:55:12.553Z,-1.7
2019-01-20T01:56:22.404Z,-1.75
2019-01-20T01:57:32.518Z,-1.71
2019-01-20T01:58:42.615Z,-1.8
2019-01-20T01:59:52.744Z,-1.75
2019-01-20T02:01:02.862Z,-1.82
2019-01-20T02:02:12.369Z,-1.86
2019-01-20T02:03:22.482Z,-1.75
2019-01-20T02:04:32.588Z,-1.83
2019-01-20T02:05:42.690Z,-1.88
2019-01-20T02:06:52.790Z,-1.85
2019-01-20T02:08:02.909Z,-1.83
2019-01-20T02:09:12.770Z,-1.88
2019-01-20T02:10:22.882Z,-1.85
2019-01-20T02:11:33.018Z,-1.85
2019-01-20T02:12:43.138Z,-1.94
2019-01-20T02:13:53.246Z,-1.96
2019-01-20T02:15:03.423Z,-1.89
2019-01-20T02:16:13.532Z,-1.92
2019-01-20T02:17:23.631Z,-1.89
2019-01-20T02:18:33.794Z,-1.88
2019-01-20T02:19:43.907Z,-1.94
2019-01-20T02:20:54.037Z,-1.85
2019-01-20T02:22:04.155Z,-1.92
2019-01-20T02:23:14.279Z,-1.88
2019-01-20T02:24:24.392Z,-1.96
2019-01-20T02:25:34.495Z,-2.01
2019-01-20T02:26:44.263Z,-2.01
2019-01-20T02:27:54.366Z,-2.03
2019-01-20T02:29:04.477Z,-2.1
2019-01-20T02:30:14.592Z,-2.07
2019-01-20T02:31:24.719Z,-2.06
2019-01-20T02:32:34.835Z,-2.07
2019-01-20T02:33:44.959Z,-2.04
2019-01-20T02:34:55.078Z,-2
2019-01-20T02:36:04.926Z,-2.04
2019-01-20T02:37:15.064Z,-2.07
2019-01-20T02:38:25.202Z,-2
2019-01-20T02:39:35.315Z,-2.14
2019-01-20T02:40:45.495Z,-2.15
2019-01-20T02:42:00.046Z,-2.07
2019-01-20T02:43:10.175Z,-2.1
2019-01-20T02:44:20.408Z,-2.04
2019-01-20T02:45:30.504Z,-2.03
2019-01-20T02:46:40.608Z,-2.04
2019-01-20T02:47:50.723Z,-2
2019-01-20T02:49:00.853Z,-1.96
2019-01-20T02:50:10.986Z,-1.94
2019-01-20T02:51:21.115Z,-1.96
2019-01-20T02:52:31.235Z,-2.08
2019-01-20T02:53:41.345Z,-2.01
2019-01-20T02:54:51.489Z,-2.15
2019-01-20T02:56:01.601Z,-2.12
2019-01-20T02:57:11.713Z,-2.04
2019-01-20T02:58:21.832Z,-2.15
2019-01-20T02:59:31.967Z,-2.19
2019-01-20T03:00:41.826Z,-2.1
2019-01-20T03:01:51.964Z,-2.19
2019-01-20T03:03:02.088Z,-2.21
2019-01-20T03:04:12.191Z,-2.25
2019-01-20T03:05:22.371Z,-2.25
2019-01-20T03:06:32.477Z,-2.26
2019-01-20T03:07:42.602Z,-2.29
2019-01-20T03:08:52.715Z,-2.25
2019-01-20T03:10:02.851Z,-2.39
2019-01-20T03:11:12.963Z,-2.37
2019-01-20T03:12:23.081Z,-2.4
2019-01-20T03:13:33.198Z,-2.42
2019-01-20T03:14:43.319Z,-2.42
2019-01-20T03:15:53.453Z,-2.37
2019-01-20T03:17:03.556Z,-2.47
2019-01-20T03:18:13.679Z,-2.54
2019-01-20T03:19:23.817Z,-2.52
2019-01-20T03:20:33.950Z,-2.51
2019-01-20T03:21:44.095Z,-2.58
2019-01-20T03:22:54.195Z,-2.62
2019-01-20T03:24:04.317Z,-2.62
2019-01-20T03:25:14.437Z,-2.64
2019-01-20T03:26:24.558Z,-2.71
2019-01-20T03:27:34.685Z,-2.68
2019-01-20T03:28:44.792Z,-2.62
2019-01-20T03:29:54.886Z,-2.62
2019-01-20T03:31:05.029Z,-2.7
2019-01-20T03:32:15.307Z,-2.76
2019-01-20T03:33:25.449Z,-2.76
2019-01-20T03:34:35.553Z,-2.77
2019-01-20T03:35:45.657Z,-2.74
2019-01-20T03:36:55.753Z,-2.64
2019-01-20T03:38:05.993Z,-2.79
2019-01-20T03:39:16.112Z,-2.68
2019-01-20T03:40:26.216Z,-2.81
2019-01-20T03:41:36.076Z,-2.81
2019-01-20T03:42:45.978Z,-2.76
2019-01-20T03:43:56.126Z,-2.76
2019-01-20T03:45:06.222Z,-2.76
2019-01-20T03:46:16.091Z,-2.89
2019-01-20T03:47:26.436Z,-2.86
2019-01-20T03:48:36.568Z,-2.94
2019-01-20T03:49:46.175Z,-2.92
2019-01-20T03:50:56.286Z,-2.74
2019-01-20T03:52:06.394Z,-2.99
2019-01-20T03:53:16.507Z,-2.86
2019-01-20T03:54:26.355Z,-2.94
2019-01-20T03:55:36.490Z,-2.84
2019-01-20T03:56:46.591Z,-2.99
2019-01-20T03:57:56.457Z,-2.94
2019-01-20T03:59:06.577Z,-2.88
2019-01-20T04:00:16.726Z,-2.97
2019-01-20T04:01:26.834Z,-2.91
2019-01-20T04:02:36.933Z,-2.89
2019-01-20T04:03:47.029Z,-3.01
2019-01-20T04:04:57.140Z,-2.97
2019-01-20T04:06:08.239Z,-3.04
2019-01-20T04:07:18.377Z,-3.08
2019-01-20T04:08:28.530Z,-3.05
2019-01-20T04:09:38.644Z,-3.02
2019-01-20T04:10:48.759Z,-3.01
2019-01-20T04:11:58.864Z,-3.01
2019-01-20T04:13:08.990Z,-2.98
2019-01-20T04:14:19.101Z,-2.98
2019-01-20T04:15:29.202Z,-3.08
2019-01-20T04:16:39.353Z,-3.09
2019-01-20T04:17:49.460Z,-3.1
2019-01-20T04:18:59.570Z,-3.09
2019-01-20T04:20:09.515Z,-3.15
2019-01-20T04:21:19.631Z,-3.09
2019-01-20T04:22:29.735Z,-3.1
2019-01-20T04:23:39.842Z,-3.22
2019-01-20T04:24:50.031Z,-3.16
2019-01-20T04:26:00.141Z,-3.16
2019-01-20T04:27:09.892Z,-3.13
2019-01-20T04:28:20.032Z,-3.13
2019-01-20T04:29:29.896Z,-3.2
2019-01-20T04:30:40.009Z,-3.13
2019-01-20T04:31:49.502Z,-3.15
2019-01-20T04:32:59.357Z,-3.2
2019-01-20T04:34:09.485Z,-3.1
2019-01-20T04:35:19.607Z,-3.15
2019-01-20T04:36:29.713Z,-3.15
2019-01-20T04:37:39.829Z,-3.05
2019-01-20T04:38:49.936Z,-3.01
2019-01-20T04:40:00.233Z,-2.99
2019-01-20T04:41:10.398Z,-2.97
2019-01-20T04:42:28.700Z,-2.95
2019-01-20T04:43:39.007Z,-2.84
2019-01-20T04:44:49.109Z,-2.91
2019-01-20T04:45:58.847Z,-2.81
2019-01-20T04:47:08.964Z,-2.76
2019-01-20T04:48:19.062Z,-2.8
2019-01-20T04:49:29.169Z,-2.81
2019-01-20T04:50:39.291Z,-2.77
2019-01-20T04:51:49.397Z,-2.8
2019-01-20T04:52:59.503Z,-2.8
2019-01-20T04:54:09.353Z,-2.86
2019-01-20T04:55:19.452Z,-2.77
2019-01-20T04:56:29.307Z,-2.77
2019-01-20T04:57:39.442Z,-2.89
2019-01-20T04:58:49.532Z,-2.8
2019-01-20T04:59:59.637Z,-2.74
2019-01-20T05:01:09.751Z,-2.86
2019-01-20T05:02:19.866Z,-2.88
2019-01-20T05:03:29.981Z,-2.84
2019-01-20T05:04:40.116Z,-2.91
2019-01-20T05:05:50.225Z,-2.89
2019-01-20T05:07:00.079Z,-2.81
2019-01-20T05:08:10.179Z,-2.89
2019-01-20T05:09:20.020Z,-2.89
2019-01-20T05:10:30.126Z,-2.92
2019-01-20T05:11:40.248Z,-2.91
2019-01-20T05:12:50.346Z,-2.91
2019-01-20T05:14:00.462Z,-2.94
2019-01-20T05:15:10.316Z,-2.97
2019-01-20T05:16:20.428Z,-2.99
2019-01-20T05:17:30.530Z,-3.13
2019-01-20T05:18:40.636Z,-3.09
2019-01-20T05:19:50.750Z,-3.1
2019-01-20T05:21:00.871Z,-3.17
2019-01-20T05:22:10.982Z,-3.16
2019-01-20T05:23:21.225Z,-3.23
2019-01-20T05:24:31.335Z,-3.2
2019-01-20T05:25:41.470Z,-3.22
2019-01-20T05:26:51.635Z,-3.27
2019-01-20T05:28:01.737Z,-3.3
2019-01-20T05:29:11.846Z,-3.2
2019-01-20T05:30:21.946Z,-3.23
2019-01-20T05:31:31.694Z,-3.26
2019-01-20T05:32:41.794Z,-3.26
2019-01-20T05:33:51.914Z,-3.17
2019-01-20T05:35:02.132Z,-3.19
2019-01-20T05:36:11.891Z,-3.15
2019-01-20T05:37:21.985Z,-3.1
2019-01-20T05:38:31.714Z,-3.13
2019-01-20T05:39:41.818Z,-3.02
2019-01-20T05:40:51.926Z,-2.97
2019-01-20T05:42:02.027Z,-2.94
2019-01-20T05:43:12.158Z,-2.98
2019-01-20T05:44:22.260Z,-3.09
2019-01-20T05:45:32.362Z,-3.09
2019-01-20T05:46:42.469Z,-3.05
2019-01-20T05:47:52.409Z,-3.13
2019-01-20T05:49:02.510Z,-3.12
2019-01-20T05:50:12.368Z,-3.13
2019-01-20T05:51:22.503Z,-3.08
2019-01-20T05:52:32.609Z,-3.1
2019-01-20T05:53:42.723Z,-3.1
2019-01-20T05:54:52.831Z,-3.1
2019-01-20T05:56:04.533Z,-3.1
2019-01-20T05:57:14.649Z,-3.05
2019-01-20T05:58:24.757Z,-3.05
2019-01-20T05:59:34.879Z,-3.16
2019-01-20T06:00:44.988Z,-3.12
2019-01-20T06:01:55.091Z,-3.15
2019-01-20T06:03:05.190Z,-3.19
2019-01-20T06:04:15.287Z,-3.19
2019-01-20T06:05:25.399Z,-3.12
2019-01-20T06:06:35.606Z,-3.1
2019-01-20T06:07:45.377Z,-3.23
2019-01-20T06:08:55.475Z,-3.13
2019-01-20T06:10:06.714Z,-3.22
2019-01-20T06:11:16.566Z,-3.27
2019-01-20T06:12:26.671Z,-3.35
2019-01-20T06:13:36.773Z,-3.3
2019-01-20T06:14:46.530Z,-3.3
2019-01-20T06:15:56.651Z,-3.33
2019-01-20T06:17:06.784Z,-3.33
2019-01-20T06:18:17.539Z,-3.37
2019-01-20T06:19:27.673Z,-3.45
2019-01-20T06:20:37.776Z,-3.38
2019-01-20T06:21:47.875Z,-3.33
2019-01-20T06:22:57.611Z,-3.26
2019-01-20T06:24:07.348Z,-3.22
2019-01-20T06:25:17.453Z,-3.2
2019-01-20T06:26:27.617Z,-3.12
2019-01-20T06:27:37.713Z,-3.08
2019-01-20T06:28:48.802Z,-3.09
2019-01-20T06:29:58.894Z,-3.19
2019-01-20T06:31:09.041Z,-3.22
2019-01-20T06:32:19.132Z,-3.19
2019-01-20T06:33:29.243Z,-3.19
2019-01-20T06:34:39.349Z,-3.3
2019-01-20T06:35:49.465Z,-3.35
2019-01-20T06:36:59.617Z,-3.31
2019-01-20T06:38:09.739Z,-3.38
2019-01-20T06:39:20.057Z,-3.55
2019-01-20T06:40:30.155Z,-3.48
2019-01-20T06:41:40.249Z,-3.46
2019-01-20T06:42:50.113Z,-3.51
2019-01-20T06:44:07.385Z,-3.54
2019-01-20T06:45:17.223Z,-3.56
2019-01-20T06:46:27.311Z,-3.52
2019-01-20T06:47:37.409Z,-3.51
2019-01-20T06:48:47.505Z,-3.49
2019-01-20T06:49:57.597Z,-3.48
2019-01-20T06:51:07.747Z,-3.54
2019-01-20T06:52:17.860Z,-3.51
2019-01-20T06:53:28.931Z,-3.58
2019-01-20T06:54:38.795Z,-3.54
2019-01-20T06:55:48.651Z,-3.54
2019-01-20T06:56:58.773Z,-3.56
2019-01-20T06:58:08.874Z,-3.63
2019-01-20T06:59:18.981Z,-3.58
2019-01-20T07:00:29.072Z,-3.63
2019-01-20T07:01:39.237Z,-3.58
2019-01-20T07:02:49.348Z,-3.56
2019-01-20T07:03:59.665Z,-3.69
2019-01-20T07:05:09.773Z,-3.67
2019-01-20T07:06:19.615Z,-3.64
2019-01-20T07:07:29.771Z,-3.61
2019-01-20T07:08:39.868Z,-3.67
2019-01-20T07:09:49.997Z,-3.67
2019-01-20T07:11:00.097Z,-3.64
2019-01-20T07:12:10.213Z,-3.59
2019-01-20T07:13:20.314Z,-3.52
2019-01-20T07:14:30.425Z,-3.54
2019-01-20T07:15:40.537Z,-3.55
2019-01-20T07:16:50.681Z,-3.58
2019-01-20T07:18:00.774Z,-3.48
2019-01-20T07:19:10.902Z,-3.46
2019-01-20T07:20:21.040Z,-3.43
2019-01-20T07:21:31.150Z,-3.49
2019-01-20T07:22:41.261Z,-3.46
2019-01-20T07:23:51.365Z,-3.52
2019-01-20T07:25:01.472Z,-3.52
2019-01-20T07:26:11.595Z,-3.52
2019-01-20T07:27:21.712Z,-3.58
2019-01-20T07:28:31.841Z,-3.66
2019-01-20T07:29:41.941Z,-3.56
2019-01-20T07:30:52.041Z,-3.48
2019-01-20T07:32:02.170Z,-3.43
2019-01-20T07:33:12.285Z,-3.38
2019-01-20T07:34:22.157Z,-3.41
2019-01-20T07:35:32.916Z,-3.51
2019-01-20T07:36:43.023Z,-3.4
2019-01-20T07:37:53.137Z,-3.46
2019-01-20T07:39:03.306Z,-3.46
2019-01-20T07:40:13.443Z,-3.37
2019-01-20T07:41:23.194Z,-3.38
2019-01-20T07:42:33.319Z,-3.37
2019-01-20T07:43:43.429Z,-3.37
2019-01-20T07:44:53.570Z,-3.3
2019-01-20T07:46:03.703Z,-3.37
2019-01-20T07:47:13.816Z,-3.4
2019-01-20T07:48:23.934Z,-3.35
2019-01-20T07:49:34.045Z,-3.3
2019-01-20T07:50:44.156Z,-3.31
2019-01-20T07:51:55.602Z,-3.23
2019-01-20T07:53:05.719Z,-3.2
2019-01-20T07:54:15.839Z,-3.19
2019-01-20T07:55:25.975Z,-3.19
2019-01-20T07:56:36.082Z,-3.12
2019-01-20T07:57:46.214Z,-3.13
2019-01-20T07:58:56.351Z,-3.05
2019-01-20T08:00:06.512Z,-3.09
2019-01-20T08:01:16.631Z,-3.12
2019-01-20T08:02:26.785Z,-3.09
2019-01-20T08:03:36.901Z,-3.13
2019-01-20T08:04:46.764Z,-3.13
2019-01-20T08:05:56.693Z,-3.19
2019-01-20T08:07:06.809Z,-3.1
2019-01-20T08:08:16.699Z,-3.13
2019-01-20T08:09:26.833Z,-3.15
2019-01-20T08:10:36.948Z,-3.08
2019-01-20T08:11:47.094Z,-3.1
2019-01-20T08:12:57.230Z,-3.02
2019-01-20T08:14:07.355Z,-2.99
2019-01-20T08:15:17.494Z,-3.02
2019-01-20T08:16:27.614Z,-2.97
2019-01-20T08:17:37.758Z,-2.97
2019-01-20T08:18:47.921Z,-2.89
2019-01-20T08:19:58.042Z,-2.97
2019-01-20T08:21:08.176Z,-2.92
2019-01-20T08:22:18.279Z,-2.91
2019-01-20T08:23:28.189Z,-2.89
2019-01-20T08:24:38.333Z,-2.91
2019-01-20T08:25:48.433Z,-2.95
2019-01-20T08:26:58.347Z,-3.01
2019-01-20T08:28:08.483Z,-2.97
2019-01-20T08:29:18.666Z,-2.98
2019-01-20T08:30:28.783Z,-3.01
2019-01-20T08:31:38.916Z,-2.98
2019-01-20T08:32:49.036Z,-2.97
2019-01-20T08:33:58.793Z,-2.95
2019-01-20T08:35:08.937Z,-2.91
2019-01-20T08:36:19.061Z,-2.86
2019-01-20T08:37:34.341Z,-2.83
2019-01-20T08:38:44.593Z,-2.21
2019-01-20T08:39:54.729Z,-1.62
2019-01-20T08:41:04.869Z,-0.95
2019-01-20T08:42:15.050Z,-0.38
2019-01-20T08:43:31.517Z,0.16
2019-01-20T08:44:41.803Z,0.81
2019-01-20T08:45:51.957Z,1.33
2019-01-20T08:47:02.098Z,1.72
2019-01-20T08:48:12.244Z,2.21
2019-01-20T08:49:22.380Z,2.52
2019-01-20T08:50:32.490Z,2.78
2019-01-20T08:51:42.624Z,2.97
2019-01-20T08:52:52.768Z,3.29
2019-01-20T08:54:03.121Z,3.54
2019-01-20T08:55:13.245Z,3.55
2019-01-20T08:56:23.403Z,3.68
2019-01-20T08:57:33.524Z,4
2019-01-20T08:58:43.959Z,4.08
2019-01-20T08:59:54.866Z,4.23
2019-01-20T09:01:05.590Z,4.3
2019-01-20T09:02:16.481Z,4.43
2019-01-20T09:03:27.534Z,4.74
2019-01-20T09:04:38.076Z,5
2019-01-20T09:05:48.938Z,4.81
2019-01-20T09:06:59.675Z,4.81
2019-01-20T09:08:10.444Z,5.07
2019-01-20T09:09:21.438Z,5.32
2019-01-20T09:10:32.633Z,5.5
2019-01-20T09:11:44.537Z,5.65
2019-01-20T09:12:56.943Z,5.74
2019-01-20T09:14:07.953Z,6.12
2019-01-20T09:15:19.987Z,6.53
2019-01-20T09:16:30.776Z,6.56
2019-01-20T09:17:41.394Z,6.63
2019-01-20T09:18:52.456Z,6.85
2019-01-20T09:20:03.418Z,6.95
2019-01-20T09:21:13.512Z,7.02
2019-01-20T09:22:24.239Z,6.97
2019-01-20T09:23:35.285Z,6.93
2019-01-20T09:24:45.885Z,6.84
2019-01-20T09:25:57.029Z,6.67
2019-01-20T09:27:08.358Z,6.46
2019-01-20T09:28:19.034Z,6.3
2019-01-20T09:29:29.383Z,6.2
2019-01-20T09:30:40.514Z,6.28
2019-01-20T09:31:52.481Z,6.31
2019-01-20T09:33:04.840Z,6.45
2019-01-20T09:34:16.966Z,6.52
2019-01-20T09:35:27.526Z,6.48
2019-01-20T09:36:39.062Z,6.42
2019-01-20T09:37:49.712Z,6.17
2019-01-20T09:38:59.898Z,5.75
2019-01-20T09:40:10.047Z,5.56
2019-01-20T09:41:20.195Z,5.43
2019-01-20T09:42:30.358Z,5.29
2019-01-20T09:43:47.062Z,5.29
2019-01-20T09:44:57.519Z,5.29
2019-01-20T09:46:07.687Z,5.32
2019-01-20T09:47:17.835Z,5.24
2019-01-20T09:48:28.207Z,5.22
2019-01-20T09:49:38.355Z,5.28
2019-01-20T09:50:48.513Z,5.29
2019-01-20T09:51:58.700Z,5.53
2019-01-20T09:53:08.851Z,5.68
2019-01-20T09:54:18.967Z,5.83
2019-01-20T09:55:29.215Z,6.03
2019-01-20T09:56:39.370Z,6.08
2019-01-20T09:57:49.497Z,6.17
2019-01-20T09:58:59.686Z,6.26
2019-01-20T10:00:09.916Z,6.39
2019-01-20T10:01:20.161Z,6.48
2019-01-20T10:02:31.648Z,6.64
2019-01-20T10:03:42.251Z,6.77
2019-01-20T10:04:52.405Z,7.03
2019-01-20T10:06:02.571Z,7.22
2019-01-20T10:08:26.258Z,7.59
2019-01-20T10:09:36.427Z,7.66
2019-01-20T10:10:46.603Z,7.74
2019-01-20T10:11:56.773Z,7.97
2019-01-20T10:13:06.959Z,8.2
2019-01-20T10:14:17.099Z,8.39
2019-01-20T10:15:27.267Z,8.55
2019-01-20T10:16:37.407Z,8.74
2019-01-20T10:17:47.215Z,8.93
2019-01-20T10:18:57.396Z,9.09
2019-01-20T10:20:07.551Z,9.26
2019-01-20T10:21:17.731Z,9.37
2019-01-20T10:22:28.315Z,9.38
2019-01-20T10:23:38.557Z,9.4
2019-01-20T10:24:50.242Z,9.5
2019-01-20T10:26:00.503Z,9.52
2019-01-20T10:27:10.876Z,9.63
2019-01-20T10:28:21.387Z,9.63
2019-01-20T10:29:31.877Z,9.56
2019-01-20T10:30:42.282Z,9.48
2019-01-20T10:31:52.280Z,9.37
2019-01-20T10:33:03.491Z,9.44
2019-01-20T10:34:13.532Z,9.29
2019-01-20T10:35:23.742Z,9.35
2019-01-20T10:36:33.660Z,9.42
2019-01-20T10:37:43.821Z,9.44
2019-01-20T10:38:53.992Z,9.35
2019-01-20T10:40:04.170Z,9.16
2019-01-20T10:41:14.352Z,9.04
2019-01-20T10:42:24.523Z,8.75
2019-01-20T10:43:34.720Z,8.87
2019-01-20T10:44:44.886Z,8.71
2019-01-20T10:45:55.065Z,8.75
2019-01-20T10:47:05.246Z,8.71
2019-01-20T10:48:15.420Z,8.71
2019-01-20T10:49:25.648Z,8.8
2019-01-20T10:50:35.828Z,8.95
2019-01-20T10:51:46.003Z,9
2019-01-20T10:52:56.167Z,9
2019-01-20T10:54:07.212Z,9.04
2019-01-20T10:55:17.495Z,9.05
2019-01-20T10:56:30.041Z,9.11
2019-01-20T10:57:41.474Z,9.15
2019-01-20T10:58:51.651Z,9.12
2019-01-20T11:00:01.807Z,9.15
2019-01-20T11:01:11.975Z,9.09
2019-01-20T11:02:22.146Z,9.16
2019-01-20T11:03:32.092Z,9.16
2019-01-20T11:04:42.244Z,9.22
2019-01-20T11:05:52.415Z,9.29
2019-01-20T11:07:02.617Z,9.55
2019-01-20T11:08:12.430Z,9.65
2019-01-20T11:09:22.584Z,9.78
2019-01-20T11:10:32.787Z,9.77
2019-01-20T11:11:42.976Z,9.8
2019-01-20T11:12:52.792Z,9.99
2019-01-20T11:14:09.221Z,10.15
2019-01-20T11:15:19.877Z,10.07
2019-01-20T11:16:29.674Z,10.11
2019-01-20T11:17:39.861Z,10.29
2019-01-20T11:18:50.059Z,10.27
2019-01-20T11:20:00.243Z,10.33
2019-01-20T11:21:10.468Z,10.17
2019-01-20T11:22:20.645Z,9.93
2019-01-20T11:23:30.831Z,9.74
2019-01-20T11:24:41.004Z,9.62
2019-01-20T11:25:51.210Z,9.6
2019-01-20T11:27:01.440Z,9.75
2019-01-20T11:28:11.623Z,9.7
2019-01-20T11:29:21.786Z,9.6
2019-01-20T11:30:31.986Z,9.65
2019-01-20T11:31:42.180Z,9.77
2019-01-20T11:32:52.096Z,9.83
2019-01-20T11:34:02.277Z,10.02
2019-01-20T11:35:12.453Z,10.02
2019-01-20T11:36:22.642Z,10.05
2019-01-20T11:37:32.870Z,10.1
2019-01-20T11:38:43.039Z,10.3
2019-01-20T11:39:56.195Z,10.4
2019-01-20T11:41:09.780Z,10.34
2019-01-20T11:42:19.746Z,10.18
2019-01-20T11:43:29.903Z,9.98
2019-01-20T11:44:40.045Z,9.84
2019-01-20T11:45:50.210Z,9.71
2019-01-20T11:47:00.400Z,9.62
2019-01-20T11:48:10.612Z,9.52
2019-01-20T11:49:22.227Z,9.6
2019-01-20T11:50:32.392Z,9.78
2019-01-20T11:51:42.606Z,9.71
2019-01-20T11:52:52.837Z,9.65
2019-01-20T11:54:03.006Z,9.67
2019-01-20T11:55:12.950Z,9.78
2019-01-20T11:56:24.361Z,9.66
2019-01-20T11:57:34.549Z,9.52
2019-01-20T11:58:44.758Z,9.45
2019-01-20T11:59:54.933Z,9.27
2019-01-20T12:01:05.149Z,9.29
2019-01-20T12:02:22.236Z,9.26
2019-01-20T12:03:32.555Z,9.25
2019-01-20T12:04:42.726Z,9.26
2019-01-20T12:05:52.897Z,9.33
2019-01-20T12:07:03.066Z,9.47
2019-01-20T12:08:13.264Z,9.59
2019-01-20T12:09:23.444Z,9.81
2019-01-20T12:10:33.640Z,9.89
2019-01-20T12:11:43.884Z,9.89
2019-01-20T12:12:54.102Z,9.98
2019-01-20T12:14:04.290Z,9.91
2019-01-20T12:15:14.542Z,9.92
2019-01-20T12:16:24.732Z,10.02
2019-01-20T12:17:34.901Z,10.02
2019-01-20T12:18:44.806Z,10.13
2019-01-20T12:19:55.927Z,10.22
2019-01-20T12:21:06.227Z,10.18
2019-01-20T12:22:16.415Z,10.15
2019-01-20T12:23:26.573Z,10.15
2019-01-20T12:24:36.717Z,10.11
2019-01-20T12:25:46.663Z,9.96
2019-01-20T12:26:56.830Z,9.62
2019-01-20T12:28:06.994Z,9.52
2019-01-20T12:29:17.203Z,9.22
2019-01-20T12:30:27.400Z,9.04
2019-01-20T12:31:37.592Z,8.87
2019-01-20T12:32:47.778Z,8.75
2019-01-20T12:33:57.959Z,8.55
2019-01-20T12:35:08.145Z,8.02
2019-01-20T12:36:18.335Z,7.77
2019-01-20T12:37:28.499Z,7.41
2019-01-20T12:38:38.720Z,7.02
2019-01-20T12:39:48.947Z,6.64
2019-01-20T12:40:59.163Z,6.3
2019-01-20T12:42:09.342Z,6.03
2019-01-20T12:43:19.575Z,5.88
2019-01-20T12:44:36.226Z,5.71
2019-01-20T12:45:46.398Z,5.71
2019-01-20T12:46:56.640Z,5.8
2019-01-20T12:48:06.852Z,5.93
2019-01-20T12:49:17.030Z,5.91
2019-01-20T12:50:27.201Z,5.88
2019-01-20T12:51:37.399Z,5.88
2019-01-20T12:52:47.880Z,5.75
2019-01-20T12:53:58.053Z,5.8
2019-01-20T12:55:09.236Z,5.94
2019-01-20T12:56:19.401Z,5.96
2019-01-20T12:57:29.668Z,5.91
2019-01-20T12:58:39.827Z,5.82
2019-01-20T12:59:50.037Z,5.72
2019-01-20T13:01:00.243Z,5.47
2019-01-20T13:02:10.440Z,5.17
2019-01-20T13:03:20.597Z,4.88
2019-01-20T13:04:31.178Z,4.59
2019-01-20T13:05:41.928Z,4.41
2019-01-20T13:06:52.088Z,4.19
2019-01-20T13:08:02.236Z,3.98
2019-01-20T13:09:12.462Z,3.83
2019-01-20T13:10:22.736Z,3.73
2019-01-20T13:11:32.706Z,3.67
2019-01-20T13:12:42.991Z,3.49
2019-01-20T13:13:53.208Z,3.4
2019-01-20T13:15:03.387Z,3.28
2019-01-20T13:16:13.559Z,3.11
2019-01-20T13:17:24.264Z,3.08
2019-01-20T13:18:34.472Z,3.08
2019-01-20T13:19:44.644Z,2.81
2019-01-20T13:20:54.855Z,2.73
2019-01-20T13:22:05.048Z,2.6
2019-01-20T13:23:14.988Z,2.53
2019-01-20T13:24:25.153Z,2.52
2019-01-20T13:25:35.370Z,2.41
2019-01-20T13:26:45.560Z,2.34
2019-01-20T13:27:55.879Z,2.23
2019-01-20T13:29:06.092Z,2.16
2019-01-20T13:30:16.467Z,2.05
2019-01-20T13:31:26.672Z,2.01
2019-01-20T13:32:36.865Z,2.01
2019-01-20T13:33:47.115Z,1.85
2019-01-20T13:34:57.317Z,1.72
2019-01-20T13:36:12.190Z,1.76
2019-01-20T13:37:22.414Z,1.7
2019-01-20T13:38:32.609Z,1.87
2019-01-20T13:39:42.754Z,1.77
2019-01-20T13:40:52.966Z,1.84
2019-01-20T13:42:03.168Z,1.84
2019-01-20T13:43:13.550Z,1.92
2019-01-20T13:44:23.767Z,1.82
2019-01-20T13:45:34.003Z,1.84
2019-01-20T13:46:44.457Z,1.79
2019-01-20T13:47:54.641Z,1.8
2019-01-20T13:49:04.815Z,1.79
2019-01-20T13:50:14.740Z,1.9
2019-01-20T13:51:24.888Z,1.95
2019-01-20T13:52:35.035Z,1.92
2019-01-20T13:53:45.180Z,2
2019-01-20T13:54:55.377Z,1.82
2019-01-20T13:56:06.270Z,1.79
2019-01-20T13:57:16.377Z,1.85
2019-01-20T13:58:26.542Z,1.84
2019-01-20T13:59:36.704Z,1.85
2019-01-20T14:00:46.851Z,1.79
2019-01-20T14:01:57.622Z,1.85
2019-01-20T14:03:07.783Z,1.85
2019-01-20T14:04:17.696Z,1.79
2019-01-20T14:05:27.892Z,1.72
2019-01-20T14:06:39.017Z,1.73
2019-01-20T14:07:48.960Z,1.66
2019-01-20T14:08:59.140Z,1.55
2019-01-20T14:10:09.325Z,1.54
2019-01-20T14:11:19.491Z,1.57
2019-01-20T14:12:30.763Z,1.69
2019-01-20T14:13:40.912Z,1.69
2019-01-20T14:14:56.452Z,1.72
2019-01-20T14:16:06.626Z,1.67
2019-01-20T14:17:16.794Z,1.69
2019-01-20T14:18:27.960Z,1.77
2019-01-20T14:19:38.130Z,1.69
2019-01-20T14:20:48.330Z,1.66
2019-01-20T14:21:58.497Z,1.55
2019-01-20T14:23:08.650Z,1.5
2019-01-20T14:24:18.424Z,1.62
2019-01-20T14:25:28.585Z,1.72
2019-01-20T14:26:38.826Z,1.66
2019-01-20T14:27:48.976Z,1.7
2019-01-20T14:28:59.161Z,1.55
2019-01-20T14:30:09.321Z,1.72
2019-01-20T14:31:19.500Z,1.67
2019-01-20T14:32:29.700Z,1.66
2019-01-20T14:33:39.872Z,1.54
2019-01-20T14:34:50.800Z,1.54
2019-01-20T14:36:02.779Z,1.6
2019-01-20T14:37:16.316Z,1.51
2019-01-20T14:38:29.028Z,1.46
2019-01-20T14:39:44.193Z,1.39
2019-01-20T14:40:58.277Z,1.29
2019-01-20T14:42:12.420Z,1.35
2019-01-20T14:43:25.401Z,1.35
2019-01-20T14:44:38.166Z,1.32
2019-01-20T14:45:51.454Z,1.43
2019-01-20T14:47:03.440Z,1.47
2019-01-20T14:48:16.378Z,1.43
2019-01-20T14:49:27.507Z,1.46
2019-01-20T14:50:37.701Z,1.46
2019-01-20T14:51:47.853Z,1.32
2019-01-20T14:52:58.051Z,1.38
2019-01-20T14:54:08.236Z,1.39
2019-01-20T14:55:18.413Z,1.29
2019-01-20T14:56:28.597Z,1.32
2019-01-20T14:57:38.801Z,1.35
2019-01-20T14:58:48.709Z,1.32
2019-01-20T14:59:58.879Z,1.33
2019-01-20T15:01:09.074Z,1.35
2019-01-20T15:02:19.312Z,1.32
2019-01-20T15:03:29.497Z,1.43
2019-01-20T15:04:39.687Z,1.39
2019-01-20T15:05:49.919Z,1.36
2019-01-20T15:07:00.244Z,1.33
2019-01-20T15:08:10.520Z,1.35
2019-01-20T15:09:20.476Z,1.32
2019-01-20T15:10:30.694Z,1.28
2019-01-20T15:11:40.864Z,1.21
2019-01-20T15:12:50.800Z,1.35
2019-01-20T15:14:00.715Z,1.35
2019-01-20T15:15:13.977Z,1.32
2019-01-20T15:16:23.871Z,1.3
2019-01-20T15:17:34.077Z,1.42
2019-01-20T15:18:44.282Z,1.36
2019-01-20T15:19:54.498Z,1.47
2019-01-20T15:21:04.713Z,1.43
2019-01-20T15:22:15.370Z,1.5
2019-01-20T15:23:25.294Z,1.55